Ride Results

Manilla (08-05-2005)
Ride distance: 80.0 km

Outcomes - Manilla (08-05-2005)
Division No. of Entries Retired / DNE Completed Withdrawn Ineligible V/O Percentage Completed
HW 21 - 13 2 - 6 61.90%
MW 45 - 30 1 - 14 66.67%
LW 20 - 15 1 - 4 75.00%
JN 5 - 3 - - 2 60.00%
Totals 91 - 61 4 - 26 67.03%
Results - Manilla (08-05-2005)
No. Rider Horse Place Time Leg Speeds Total
Km/Hr
H/R bpm
Heavyweight
68 Michael Boland Tarkhim Shar Sheikara 1 (BC) 5:21:00 16.4, 13.7 14.95 29, 36, 42 (Avg:39)
18 Leanne Le Claire Licketty Split 2 5:29:00 16.4, 13.1 14.59 40, 43, 56 (Avg:49)
15 Jennifer Hargraves Kaaren Azire Celebrity 3 5:32:00 13.5, 15.4 14.46 41, 41, 49 (Avg:45)
65 Dallas Blakely Steel The Thunder 4 5:50:00 16.1, 11.9 13.71 34, 48, 50 (Avg:49)
72 Marylou Locke Ally 4 5:50:00 16.2, 11.8 13.71 35, 42, 47 (Avg:44)
28 Peter Cooper Anabriar Khaboul 6 6:08:00 13.1, 12.9 13.04 37, 40, 47 (Avg:43)
19 Graeme Burchell Comanche 7 6:19:00 13.3, 12.0 12.66 38, 44, 46 (Avg:45)
63 Denise Trollope Churinga Carrishka 8 6:34:00 12.8, 11.5 12.18 36, 40, 44 (Avg:42)
2 Kym Hagon Diamond R Casey 9 6:35:00 12.3, 11.9 12.15 36, 42, 43 (Avg:42)
75 Kristy Waddell Box Hill Zac 10 6:37:00 14.7, 10.2 12.09 34, 42, 44 (Avg:43)
34 Rod Mitchell Jasper 11 6:47:00 12.3, 11.2 11.79 37, 48, 57 (Avg:52)
13 Phil Coleman Alnotarj Statistic 12 6:57:00 11.9, 11.1 11.51 39, 42, 52 (Avg:47)
41 Gavin Groth Cherox Samtam 13 7:50:00 9.9, 10.4 10.21 39, 35, 45 (Avg:40)
23 Stephen Zonneveld Maf-Ue Sochrates Heart Rate L2 0:00:00 11.8, 9.8 - 43, 51, 68 (Avg:59)
77 Damien Bonham Box Hill Blue Lame L1 0:00:00 11.6 - 41, 43 (Avg:43)
39 Allan Caslick Clovelly Park Kazeem Withdrawn L1 0:00:00 - - 45, 46 (Avg:46)
26 Ian Dreghorn Rufus Lame L1 0:00:00 11.5 - 37, 40 (Avg:40)
9 Haydn Fisher Kalim Lame L1 0:00:00 12.3 - 31, 34 (Avg:34)
51 Mark Freeman Cedar Ridge River of Dreams Lame L1 0:00:00 10.6 - 38, 47 (Avg:47)
22 Kristianne Kalen Carnarvon Kasserine Magic Withdrawn L1 0:00:00 - - 34, 0 (Avg:0)
7 Terry McMurrrich Nyora Vivaldi Lame L1 0:00:00 10.5 - 39, 38 (Avg:38)
Middleweight
12 Raymond Griffiths Alhambra Jazz Dancer 1 (BC) 3:44:00 20.3, 22.6 21.43 32, 45, 45 (Avg:45)
87 Mark Harvey Judstan Sharwayn 2 3:47:00 20.3, 22.0 21.15 37, 53, 53 (Avg:53)
81 Jas Crafter Marneross Just Jazz 3 3:49:00 19.3, 22.8 20.96 28, 38, 52 (Avg:45)
57 Jennifer Gilbertson Master Renaut (Ferrymaster at Webbs Creek) 4 4:21:00 18.3, 18.4 18.39 36, 39, 42 (Avg:40)
1 Susan Pritchard Cherox Aldaniti 5 5:10:00 17.2, 14.0 15.48 35, 40, 42 (Avg:41)
42 Trent Brickley Gambler 6 5:29:00 14.6, 14.5 14.59 30, 35, 42 (Avg:38)
50 Brodie Ashman Alhambra Ice Dancer 7 5:40:00 14.3, 13.8 14.12 32, 37, 39 (Avg:38)
38 Stephen Cole Noble Navaar Finesse 8 6:02:00 15.9, 11.3 13.26 40, 46, 49 (Avg:47)
47 Peter Kelly Razorback Phoenix 9 6:25:00 12.9, 11.9 12.47 39, 42, 55 (Avg:48)
56 Deidre Wilcock Aussie Oy 9 6:25:00 12.9, 12.0 12.47 36, 45, 45 (Avg:45)
48 George Yule Razorback Reflection 9 6:25:00 12.9, 11.9 12.47 38, 40, 47 (Avg:43)
67 Barry Price Woodbury Conquita 12 6:26:00 13.1, 11.8 12.44 32, 42, 46 (Avg:44)
44 Claudia Reid Ningadoo Kaikoura 13 6:27:00 12.1, 12.6 12.40 32, 42, 57 (Avg:49)
8 Gail Fisher Mindari Dark Jewel 14 6:30:00 12.3, 12.2 12.31 29, 37, 40 (Avg:38)
78 Kieron Power Mahazin Moonshine 15 6:34:00 11.7, 12.6 12.18 37, 36, 38 (Avg:37)
36 Kylee Heslop Cudgelbar Stormy 16 6:35:00 12.3, 11.9 12.15 40, 36, 39 (Avg:37)
69 Margaret Boland A'Landell Karlinta 17 6:41:00 11.5, 12.3 11.97 38, 44, 51 (Avg:47)
70 Gaye Kerr Macquarie Park Silver Angel 17 6:41:00 11.5, 12.3 11.97 36, 48, 52 (Avg:50)
29 Peter Strickland Bara Park Mingari 19 6:56:00 11.9, 11.1 11.54 36, 42, 39 (Avg:40)
21 Gillian Peirce Chip Chase Kasino 20 7:01:00 11.9, 10.8 11.40 33, 34, 41 (Avg:37)
55 Brodie Freeman Cedar Ridge Destiny 21 7:06:00 10.5, 12.0 11.27 38, 42, 44 (Avg:43)
4 Dean Walkom Star of Persia 22 7:18:00 11.9, 10.1 10.96 36, 40, 50 (Avg:45)
3 Narelle Walkom Elle Espirit 22 7:18:00 11.9, 10.1 10.96 27, 34, 39 (Avg:36)
85 Bernice King Doralmir Park Nicholas 24 7:19:00 11.8, 10.1 10.93 34, 44, 53 (Avg:48)
66 Annette Truman El Shataan Adu Baba 25 7:25:00 12.8, 9.3 10.79 34, 48, 56 (Avg:52)
88 Margot Shore Arnie 26 7:48:00 11.8, 9.0 10.26 34, 36, 42 (Avg:39)
53 Ruth Van der Wegen Hazeldean Shakla Rose 27 7:54:00 9.9, 10.3 10.13 36, 42, 52 (Avg:47)
52 Kim Van Der Wegen Aratahnes Legend 27 7:54:00 9.9, 10.3 10.13 39, 39, 45 (Avg:42)
33 Kieron Power Summerwood Naivasha 29 7:58:00 9.7, 10.3 10.04 35, 43, 53 (Avg:48)
32 Sonya Ruprecht Alexville Fallon 29 7:58:00 9.7, 10.3 10.04 36, 44, 52 (Avg:48)
46 Rhiannon Groth Ceda Lame L2 0:00:00 20.3, 22.6 - 36, 44, 51 (Avg:47)
64 Darryl King Wimsey Joshua Lame L2 0:00:00 13.1, 11.8 - 39, 40, 50 (Avg:45)
17 Renee Kirk Rowallan Ramada Heart Rate L2 0:00:00 12.3, 10.8 - 32, 44, 72 (Avg:58)
30 Cassandra Little Lynbrook Liesel Lame L2 0:00:00 10.0, 13.1 - 34, 43, 46 (Avg:44)
61 Tami Parnell Woodbourne Sharnikan Lame L2 0:00:00 12.1, 11.8 - 41, 45, 50 (Avg:47)
16 Rosemary Stocks Cheeta Lame L2 0:00:00 12.3, 10.8 - 34, 43, 60 (Avg:51)
83 Mary Symons Ralvon Vim Lame L2 0:00:00 14.7, 13.6 - 35, 40, 43 (Avg:41)
76 Sonia Bonham Box Hill Missy Lame L1 0:00:00 11.6 - 35, 52 (Avg:52)
20 Catherine Dunnacliff Just Harry Withdrawn L1 0:00:00 - - 34, 42 (Avg:42)
58 Emma Fletcher Mahazin Khomet Lame L1 0:00:00 17.2 - 32, 36 (Avg:36)
71 Stuart Hitchcock Flash-Lite Lame L1 0:00:00 19.3 - 33, 48 (Avg:48)
25 Chris Noonan Bondura Jackpot Lame L1 0:00:00 13.7 - 34, 44 (Avg:44)
59 Jenny Sandford Abrock Lightfire Lame L1 0:00:00 13.3 - 34, 41 (Avg:41)
74 Patricia Waddell Box Hill Tonderburine Lame L1 0:00:00 18.8 - 35, 42 (Avg:42)
24 Chris Noonan Bridle Track Dasha Lame P/R 0:00:00 - - 34
Lightweight
31 Brad Dillon Ebonglen Holmegaard 1 (BC) 4:25:00 17.9, 18.3 18.11 40, 46, 53 (Avg:49)
82 Nikki Tucker Sanlargo Mystique 2 5:39:00 14.7, 13.6 14.16 32, 37, 43 (Avg:40)
49 Lyndell McGowan Faym El Kadet 3 5:40:00 14.3, 13.8 14.12 32, 40, 57 (Avg:48)
6 Abby McMurrich Nunyar Shatir 4 5:50:00 12.9, 14.5 13.71 36, 47, 54 (Avg:50)
84 Gloria Mills Glendos Sabodie 5 5:55:00 15.5, 11.9 13.52 32, 38, 41 (Avg:39)
35 Megan O'Connor Cudglebar Gold 5 5:55:00 14.7, 12.4 13.52 32, 36, 44 (Avg:40)
37 Robyn Cole Revelwood Saxon 7 6:02:00 19.5, 10.0 13.26 35, 44, 46 (Avg:45)
27 Neroli Mitchell- Cooper Ralvon Ramamm 8 6:08:00 13.1, 12.9 13.04 38, 50, 52 (Avg:51)
45 Shan Symons Torryburn Nazik 9 6:27:00 12.1, 12.6 12.40 38, 37, 42 (Avg:39)
86 Sue Todd Shakista 10 6:35:00 16.1, 9.7 12.15 41, 50, 47 (Avg:48)
60 Jennifer Annetts Lizian Jaleel 11 6:41:00 12.1, 11.8 11.97 37, 43, 48 (Avg:45)
5 Emma McMurrich Amir Jasara 12 6:42:00 10.5, 13.7 11.94 40, 25, 47 (Avg:36)
14 Ros Ryan Cosmic Flyte 13 6:57:00 11.9, 11.1 11.51 38, 48, 49 (Avg:48)
89 Alyson Medhurst Holly 14 7:18:00 11.7, 10.2 10.96 37, 44, 47 (Avg:45)
43 Johanna Yule Horse Rescue Yasmin 15 7:57:00 12.3, 8.4 10.06 38, 44, 59 (Avg:51)
40 Fiona Groth Abrock Hot 'N' Spicey Lame L2 0:00:00 14.6, 14.5 - 30, 38, 51 (Avg:44)
10 Luke Harvey Hammer Lame L2 0:00:00 20.3, 22.6 - 30, 47, 59 (Avg:53)
11 Melanie Anderson Markus Zen Galaxy Lame L1 0:00:00 13.4 - 39, 42 (Avg:42)
73 Kelly Christianson Montville Abigail Lame L1 0:00:00 14.9 - 35, 39 (Avg:39)
54 Jessica Taylor Diamond R William Withdrawn P/R 0:00:00 - - 36
Junior
91 Allix Jones Shellal Cattle King Flyte 1 (BC) 5:11:00 16.2, 14.7 15.43 35, 44, 46 (Avg:45)
80 Shanelle Tanner Naz-ton Count Buccaneer 2 6:34:00 11.7, 12.6 12.18 36, 40, 44 (Avg:42)
62 Sabrina Blakely Eljannah Wafa 3 7:54:00 9.9, 10.3 10.13 31, 33, 38 (Avg:35)
90 Brooke Warner Rise 'N' Shine Lame L2 0:00:00 16.2, 14.7 - 34, 40, 41 (Avg:40)
79 Hannah Barton Petria Jaffah Lame P/R 0:00:00 - - 34